Terminal Aerodrome Forecast
Issued by NWS

Home | Current Version | Previous Version | Text Only | Print | Product List | Glossary On
Versions: 1 2 3 4 5 6 7 8 9 10 11 12 13 14 15 16
239
FTUS46 KMTR 221726
TAFSTS
TAF
KSTS 221726Z 2218/2318 18006KT P6SM SKC
     FM222100 19011KT P6SM SKC
     FM230800 20003KT P6SM SKC
     FM231200 VRB04KT 5SM HZ SKC
     FM231600 24004KT P6SM SKC=

USA.gov is the U.S. government's official web portal to all federal, state and local government web resources and services.